createdAt,value
2022-12-03T00:02:19.209Z,0.89
2022-12-03T00:04:45.736Z,0.90
2022-12-03T00:07:12.147Z,0.80
2022-12-03T00:09:38.557Z,0.91
2022-12-03T00:12:05.174Z,0.92
2022-12-03T00:14:31.600Z,0.94
2022-12-03T00:16:58.042Z,0.94
2022-12-03T00:19:24.633Z,0.93
2022-12-03T00:21:51.027Z,0.92
2022-12-03T00:24:17.571Z,0.93
2022-12-03T00:26:43.969Z,0.94
2022-12-03T00:29:11.278Z,0.89
2022-12-03T00:31:37.752Z,0.86
2022-12-03T00:34:04.187Z,0.81
2022-12-03T00:36:30.644Z,0.80
2022-12-03T00:38:57.039Z,0.78
2022-12-03T00:41:23.539Z,0.75
2022-12-03T00:43:49.932Z,0.72
2022-12-03T00:46:21.072Z,0.67
2022-12-03T00:48:48.035Z,0.68
2022-12-03T00:51:14.471Z,0.62
2022-12-03T00:53:40.923Z,0.66
2022-12-03T00:56:07.846Z,0.67
2022-12-03T00:58:34.353Z,0.70
2022-12-03T01:01:00.794Z,0.75
2022-12-03T01:03:27.238Z,0.78
2022-12-03T01:05:53.968Z,0.84
2022-12-03T01:08:20.360Z,0.89
2022-12-03T01:10:46.826Z,0.92
2022-12-03T01:13:14.323Z,0.93
2022-12-03T01:15:40.890Z,0.96
2022-12-03T01:18:09.440Z,0.98
2022-12-03T01:20:38.576Z,0.99
2022-12-03T01:23:05.586Z,1.03
2022-12-03T01:25:32.148Z,1.04
2022-12-03T01:27:58.577Z,1.03
2022-12-03T01:30:24.983Z,1.07
2022-12-03T01:32:51.474Z,1.05
2022-12-03T01:35:18.037Z,1.11
2022-12-03T01:37:44.539Z,1.12
2022-12-03T01:40:15.969Z,1.12
2022-12-03T01:42:42.752Z,1.12
2022-12-03T01:45:22.229Z,1.13
2022-12-03T01:47:48.680Z,1.12
2022-12-03T01:50:23.344Z,1.14
2022-12-03T01:52:49.964Z,1.17
2022-12-03T01:55:20.929Z,1.17
2022-12-03T01:57:53.970Z,1.16
2022-12-03T02:00:22.971Z,1.08
2022-12-03T02:02:53.526Z,1.10
2022-12-03T02:05:26.315Z,1.11
2022-12-03T02:07:53.291Z,1.14
2022-12-03T02:10:25.709Z,1.10
2022-12-03T02:13:01.350Z,1.11
2022-12-03T02:15:27.878Z,1.09
2022-12-03T02:17:55.477Z,1.10
2022-12-03T02:20:22.440Z,0.98
2022-12-03T02:23:03.388Z,1.07
2022-12-03T02:25:32.492Z,1.07
2022-12-03T02:28:00.642Z,1.05
2022-12-03T02:30:28.622Z,1.05
2022-12-03T02:32:56.016Z,1.08
2022-12-03T02:35:28.766Z,1.08
2022-12-03T02:38:00.227Z,1.05
2022-12-03T02:40:31.113Z,1.02
2022-12-03T02:43:01.345Z,1.01
2022-12-03T02:45:31.211Z,1.02
2022-12-03T02:48:22.672Z,1.02
2022-12-03T02:50:52.834Z,1.03
2022-12-03T02:53:24.795Z,1.05
2022-12-03T02:55:54.453Z,1.06
2022-12-03T02:58:22.608Z,1.09
2022-12-03T03:00:50.748Z,1.09
2022-12-03T03:03:18.704Z,1.12
2022-12-03T03:05:46.221Z,1.13
2022-12-03T03:08:13.537Z,1.12
2022-12-03T03:10:41.774Z,1.14
2022-12-03T03:13:12.361Z,1.15
2022-12-03T03:15:41.003Z,1.16
2022-12-03T03:18:09.005Z,1.18
2022-12-03T03:20:36.119Z,1.19
2022-12-03T03:23:07.164Z,1.22
2022-12-03T03:25:33.609Z,1.26
2022-12-03T03:28:00.074Z,1.29
2022-12-03T03:30:29.078Z,1.29
2022-12-03T03:32:55.603Z,1.33
2022-12-03T03:35:24.041Z,1.37
2022-12-03T03:37:51.701Z,1.38
2022-12-03T03:40:18.324Z,1.39
2022-12-03T03:42:44.725Z,1.42
2022-12-03T03:45:11.318Z,1.43
2022-12-03T03:47:37.913Z,1.43
2022-12-03T03:50:05.574Z,1.29
2022-12-03T03:52:32.219Z,1.47
2022-12-03T03:54:59.102Z,1.48
2022-12-03T03:57:25.658Z,1.50
2022-12-03T03:59:52.919Z,1.52
2022-12-03T04:02:22.068Z,1.52
2022-12-03T04:04:49.256Z,1.53
2022-12-03T04:07:16.431Z,1.50
2022-12-03T04:09:43.022Z,1.54
2022-12-03T04:12:29.901Z,1.55
2022-12-03T04:14:56.321Z,1.56
2022-12-03T04:17:22.844Z,1.58
2022-12-03T04:19:49.334Z,1.55
2022-12-03T04:22:34.284Z,1.56
2022-12-03T04:25:19.036Z,1.55
2022-12-03T04:28:04.434Z,1.60
2022-12-03T04:30:30.877Z,1.63
2022-12-03T04:33:16.110Z,1.67
2022-12-03T04:35:42.713Z,1.69
2022-12-03T04:38:14.955Z,1.71
2022-12-03T04:41:00.641Z,1.75
2022-12-03T04:43:28.478Z,1.75
2022-12-03T04:45:54.985Z,1.73
2022-12-03T04:48:21.464Z,1.69
2022-12-03T04:50:48.169Z,1.73
2022-12-03T04:53:14.891Z,1.73
2022-12-03T04:55:41.442Z,1.72
2022-12-03T04:58:08.024Z,1.72
2022-12-03T05:00:36.721Z,1.73
2022-12-03T05:03:03.286Z,1.71
2022-12-03T05:05:29.905Z,1.67
2022-12-03T05:07:56.425Z,1.68
2022-12-03T05:10:22.910Z,1.68
2022-12-03T05:12:49.368Z,1.69
2022-12-03T05:15:15.795Z,1.69
2022-12-03T05:17:42.195Z,1.67
2022-12-03T05:20:29.800Z,1.67
2022-12-03T05:22:56.770Z,1.64
2022-12-03T05:25:23.240Z,1.65
2022-12-03T05:27:49.634Z,1.63
2022-12-03T05:30:16.286Z,1.61
2022-12-03T05:32:42.807Z,1.62
2022-12-03T05:35:10.147Z,1.61
2022-12-03T05:37:36.679Z,1.62
2022-12-03T05:40:03.632Z,1.63
2022-12-03T05:42:48.862Z,1.52
2022-12-03T05:45:15.457Z,1.61
2022-12-03T05:47:41.863Z,1.60
2022-12-03T05:50:08.567Z,1.61
2022-12-03T05:52:35.029Z,1.61
2022-12-03T05:55:01.701Z,1.61
2022-12-03T05:57:28.214Z,1.60
2022-12-03T05:59:54.594Z,1.56
2022-12-03T06:02:21.131Z,1.58
2022-12-03T06:04:48.725Z,1.59
2022-12-03T06:07:15.128Z,1.49
2022-12-03T06:09:41.578Z,1.53
2022-12-03T06:12:11.425Z,1.59
2022-12-03T06:14:37.855Z,1.57
2022-12-03T06:17:05.034Z,1.45
2022-12-03T06:19:31.596Z,1.54
2022-12-03T06:21:58.016Z,1.56
2022-12-03T06:24:24.514Z,1.55
2022-12-03T06:26:51.010Z,1.56
2022-12-03T06:29:17.407Z,1.56
2022-12-03T06:31:43.916Z,1.55
2022-12-03T06:34:10.431Z,1.53
2022-12-03T06:36:36.832Z,1.51
2022-12-03T06:39:04.340Z,1.52
2022-12-03T06:41:30.826Z,1.52
2022-12-03T06:43:57.224Z,1.52
2022-12-03T06:46:23.691Z,1.51
2022-12-03T06:48:50.205Z,1.51
2022-12-03T06:51:16.626Z,1.50
2022-12-03T06:53:43.081Z,1.50
2022-12-03T06:56:09.908Z,1.51
2022-12-03T06:58:36.360Z,1.52
2022-12-03T07:01:02.804Z,1.52
2022-12-03T07:03:29.250Z,1.53
2022-12-03T07:05:55.777Z,1.52
2022-12-03T07:08:22.180Z,1.50
2022-12-03T07:10:48.667Z,1.50
2022-12-03T07:13:15.061Z,1.49
2022-12-03T07:15:41.529Z,1.53
2022-12-03T07:18:08.048Z,1.50
2022-12-03T07:20:34.466Z,1.50
2022-12-03T07:23:00.884Z,1.49
2022-12-03T07:25:27.422Z,1.49
2022-12-03T07:27:53.812Z,1.50
2022-12-03T07:30:20.902Z,1.51
2022-12-03T07:32:48.640Z,1.50
2022-12-03T07:35:15.151Z,1.49
2022-12-03T07:37:42.763Z,1.47
2022-12-03T07:40:09.983Z,1.48
2022-12-03T07:42:36.483Z,1.48
2022-12-03T07:45:03.553Z,1.48
2022-12-03T07:47:30.080Z,1.50
2022-12-03T07:49:56.601Z,1.45
2022-12-03T07:52:23.003Z,1.48
2022-12-03T07:54:49.431Z,1.47
2022-12-03T07:57:15.846Z,1.49
2022-12-03T07:59:42.355Z,1.46
2022-12-03T08:02:09.192Z,1.47
2022-12-03T08:04:36.654Z,1.46
2022-12-03T08:07:03.144Z,1.46
2022-12-03T08:09:29.594Z,1.45
2022-12-03T08:12:14.783Z,1.43
2022-12-03T08:14:41.280Z,1.45
2022-12-03T08:17:12.532Z,1.43
2022-12-03T08:19:39.291Z,1.44
2022-12-03T08:22:16.307Z,1.42
2022-12-03T08:24:44.794Z,1.43
2022-12-03T08:27:18.976Z,1.40
2022-12-03T08:29:45.773Z,1.42
2022-12-03T08:32:13.033Z,1.40
2022-12-03T08:34:42.837Z,1.43
2022-12-03T08:37:16.349Z,1.43
2022-12-03T08:39:50.919Z,1.42
2022-12-03T08:42:41.954Z,1.42
2022-12-03T08:45:32.138Z,1.42
2022-12-03T08:48:02.427Z,1.40
2022-12-03T08:50:31.526Z,1.40
2022-12-03T08:53:11.355Z,1.40
2022-12-03T08:55:39.247Z,1.39
2022-12-03T08:58:22.771Z,1.40
2022-12-03T09:00:55.087Z,1.40
2022-12-03T09:03:21.592Z,1.43
2022-12-03T09:05:48.160Z,1.45
2022-12-03T09:08:14.700Z,1.41
2022-12-03T09:10:41.188Z,1.38
2022-12-03T09:13:07.737Z,1.32
2022-12-03T09:15:34.185Z,1.27
2022-12-03T09:18:00.687Z,1.36
2022-12-03T09:20:27.165Z,1.34
2022-12-03T09:22:53.553Z,1.33
2022-12-03T09:25:20.081Z,1.33
2022-12-03T09:27:46.630Z,1.30
2022-12-03T09:30:13.445Z,1.34
2022-12-03T09:32:39.916Z,1.35
2022-12-03T09:35:06.939Z,1.33
2022-12-03T09:37:33.476Z,1.33
2022-12-03T09:40:00.129Z,1.37
2022-12-03T09:42:27.023Z,1.34
2022-12-03T09:44:54.496Z,1.33
2022-12-03T09:47:21.406Z,1.33
2022-12-03T09:49:48.115Z,1.30
2022-12-03T09:52:23.911Z,1.25
2022-12-03T09:54:53.951Z,1.24
2022-12-03T09:57:20.770Z,1.23
2022-12-03T09:59:47.352Z,1.24
2022-12-03T10:02:31.699Z,1.25
2022-12-03T10:04:58.721Z,1.25
2022-12-03T10:07:25.962Z,1.25
2022-12-03T10:09:53.138Z,1.22
2022-12-03T10:12:23.955Z,1.23
2022-12-03T10:14:51.527Z,1.23
2022-12-03T10:17:18.376Z,1.09
2022-12-03T10:19:45.055Z,1.19
2022-12-03T10:22:11.502Z,1.24
2022-12-03T10:24:38.470Z,1.27
2022-12-03T10:27:37.297Z,1.27
2022-12-03T10:30:14.397Z,1.23
2022-12-03T10:32:47.382Z,1.20
2022-12-03T10:35:17.784Z,1.14
2022-12-03T10:38:03.999Z,1.12
2022-12-03T10:40:36.364Z,1.08
2022-12-03T10:43:14.503Z,1.08
2022-12-03T10:45:41.818Z,1.06
2022-12-03T10:48:27.509Z,1.06
2022-12-03T10:50:56.479Z,1.12
2022-12-03T10:53:27.049Z,1.12
2022-12-03T10:55:59.343Z,1.07
2022-12-03T10:58:45.022Z,1.11
2022-12-03T11:01:21.335Z,1.11
2022-12-03T11:03:48.636Z,1.05
2022-12-03T11:06:17.664Z,1.12
2022-12-03T11:08:56.569Z,1.08
2022-12-03T11:11:29.879Z,1.13
2022-12-03T11:13:59.155Z,1.12
2022-12-03T11:16:40.856Z,1.09
2022-12-03T11:19:13.495Z,1.08
2022-12-03T11:22:11.676Z,1.05
2022-12-03T11:24:39.754Z,1.05
2022-12-03T11:27:16.358Z,1.07
2022-12-03T11:29:57.028Z,1.04
2022-12-03T11:32:38.839Z,0.99
2022-12-03T11:35:35.775Z,0.94
2022-12-03T11:38:41.013Z,0.93
2022-12-03T11:41:31.623Z,0.97
2022-12-03T11:44:29.321Z,0.81
2022-12-03T11:46:57.371Z,0.91
2022-12-03T11:49:34.574Z,0.91
2022-12-03T11:52:04.280Z,0.89
2022-12-03T11:54:34.409Z,0.88
2022-12-03T11:57:01.365Z,0.80
2022-12-03T11:59:28.129Z,0.84
2022-12-03T12:01:54.598Z,0.72
2022-12-03T12:04:31.012Z,0.84
2022-12-03T12:06:57.563Z,0.79
2022-12-03T12:09:50.834Z,0.81
2022-12-03T12:12:31.872Z,0.79
2022-12-03T12:14:59.386Z,0.77
2022-12-03T12:17:43.837Z,0.77
2022-12-03T12:20:13.918Z,0.75
2022-12-03T12:22:40.349Z,0.75
2022-12-03T12:25:40.407Z,0.78
2022-12-03T12:28:07.153Z,0.80
2022-12-03T12:30:33.798Z,0.76
2022-12-03T12:33:07.661Z,0.81
2022-12-03T12:35:34.237Z,0.77
2022-12-03T12:38:06.504Z,0.75
2022-12-03T12:40:46.795Z,0.74
2022-12-03T12:43:26.103Z,0.68
2022-12-03T12:45:55.013Z,0.67
2022-12-03T12:48:34.546Z,0.72
2022-12-03T12:51:10.837Z,0.65
2022-12-03T12:53:39.424Z,0.68
2022-12-03T12:56:24.593Z,0.68
2022-12-03T12:58:51.738Z,0.59
2022-12-03T13:01:30.199Z,0.60
2022-12-03T13:03:57.451Z,0.59
2022-12-03T13:06:27.558Z,0.60
2022-12-03T13:08:54.494Z,0.56
2022-12-03T13:11:41.410Z,0.46
2022-12-03T13:14:21.818Z,0.50
2022-12-03T13:16:50.674Z,0.51
2022-12-03T13:19:39.624Z,0.51
2022-12-03T13:22:18.434Z,0.46
2022-12-03T13:24:44.898Z,0.47
2022-12-03T13:27:17.350Z,0.47
2022-12-03T13:29:51.400Z,0.51
2022-12-03T13:32:23.507Z,0.52
2022-12-03T13:34:55.187Z,0.53
2022-12-03T13:37:26.900Z,0.57
2022-12-03T13:39:56.612Z,0.58
2022-12-03T13:42:39.600Z,0.54
2022-12-03T13:45:31.004Z,0.57
2022-12-03T13:48:03.618Z,0.53
2022-12-03T13:50:46.909Z,0.52
2022-12-03T13:53:28.056Z,0.47
2022-12-03T13:56:13.945Z,0.48
2022-12-03T13:58:40.414Z,0.52
2022-12-03T14:01:07.199Z,0.49
2022-12-03T14:03:33.790Z,0.43
2022-12-03T14:06:00.268Z,0.42
2022-12-03T14:08:26.696Z,0.38
2022-12-03T14:10:58.586Z,0.38
2022-12-03T14:13:26.682Z,0.40
2022-12-03T14:15:53.182Z,0.29
2022-12-03T14:18:19.595Z,0.42
2022-12-03T14:20:46.173Z,0.37
2022-12-03T14:23:12.615Z,0.35
2022-12-03T14:25:39.071Z,0.37
2022-12-03T14:28:08.693Z,0.43
2022-12-03T14:30:36.473Z,0.32
2022-12-03T14:33:02.943Z,0.37
2022-12-03T14:35:29.374Z,0.34
2022-12-03T14:37:55.789Z,0.36
2022-12-03T14:40:22.609Z,0.33
2022-12-03T14:42:49.062Z,0.41
2022-12-03T14:45:15.485Z,0.41
2022-12-03T14:47:41.993Z,0.39
2022-12-03T14:50:13.335Z,0.41
2022-12-03T14:52:40.294Z,0.44
2022-12-03T14:55:07.075Z,0.41
2022-12-03T14:57:34.571Z,0.38
2022-12-03T15:00:01.034Z,0.35
2022-12-03T15:02:28.845Z,0.33
2022-12-03T15:04:55.411Z,0.32
2022-12-03T15:07:22.012Z,0.30
2022-12-03T15:09:48.510Z,0.30
2022-12-03T15:12:15.136Z,0.26
2022-12-03T15:14:42.474Z,0.18
2022-12-03T15:17:08.929Z,0.15
2022-12-03T15:19:35.426Z,0.17
2022-12-03T15:22:01.851Z,0.20
2022-12-03T15:24:28.682Z,0.20
2022-12-03T15:26:55.883Z,0.18
2022-12-03T15:29:22.368Z,0.17
2022-12-03T15:31:48.802Z,0.15
2022-12-03T15:34:21.848Z,0.13
2022-12-03T15:36:49.092Z,0.13
2022-12-03T15:39:16.514Z,0.10
2022-12-03T15:41:42.928Z,0.08
2022-12-03T15:44:09.374Z,0.10
2022-12-03T15:46:35.920Z,0.04
2022-12-03T15:49:02.587Z,0.04
2022-12-03T15:51:29.030Z,0.04
2022-12-03T15:53:55.528Z,0.05
2022-12-03T15:56:21.987Z,0.03
2022-12-03T15:58:48.441Z,0.05
2022-12-03T16:01:15.183Z,0.05
2022-12-03T16:03:41.748Z,-0.08
2022-12-03T16:06:08.768Z,-0.04
2022-12-03T16:08:35.313Z,0.01
2022-12-03T16:11:01.916Z,-0.03
2022-12-03T16:13:28.373Z,-0.08
2022-12-03T16:15:54.909Z,-0.09
2022-12-03T16:18:21.553Z,-0.06
2022-12-03T16:20:47.957Z,-0.04
2022-12-03T16:23:14.379Z,-0.05
2022-12-03T16:25:40.757Z,-0.10
2022-12-03T16:28:07.175Z,-0.10
2022-12-03T16:30:33.686Z,-0.14
2022-12-03T16:33:00.142Z,-0.22
2022-12-03T16:35:26.594Z,-0.17
2022-12-03T16:37:54.045Z,-0.13
2022-12-03T16:40:20.535Z,-0.18
2022-12-03T16:42:47.001Z,-0.19
2022-12-03T16:45:16.370Z,-0.26
2022-12-03T16:47:42.962Z,-0.30
2022-12-03T16:50:15.896Z,-0.33
2022-12-03T16:52:47.253Z,-0.32
2022-12-03T16:55:13.692Z,-0.30
2022-12-03T16:57:40.106Z,-0.32
2022-12-03T17:00:07.632Z,-0.28
2022-12-03T17:02:34.158Z,-0.33
2022-12-03T17:05:00.620Z,-0.33
2022-12-03T17:07:27.244Z,-0.30
2022-12-03T17:09:53.914Z,-0.41
2022-12-03T17:12:20.513Z,-0.30
2022-12-03T17:14:46.983Z,-0.32
2022-12-03T17:17:13.375Z,-0.34
2022-12-03T17:19:39.868Z,-0.37
2022-12-03T17:22:06.300Z,-0.35
2022-12-03T17:24:32.752Z,-0.30
2022-12-03T17:26:59.171Z,-0.30
2022-12-03T17:29:25.569Z,-0.31
2022-12-03T17:31:52.076Z,-0.31
2022-12-03T17:34:18.512Z,-0.29
2022-12-03T17:36:44.962Z,-0.28
2022-12-03T17:39:11.363Z,-0.25
2022-12-03T17:41:37.842Z,-0.24
2022-12-03T17:44:09.776Z,-0.22
2022-12-03T17:46:37.257Z,-0.27
2022-12-03T17:49:03.814Z,-0.27
2022-12-03T17:51:30.291Z,-0.28
2022-12-03T17:53:56.711Z,-0.31
2022-12-03T17:56:23.117Z,-0.28
2022-12-03T17:58:49.530Z,-0.29
2022-12-03T18:01:15.916Z,-0.34
2022-12-03T18:03:42.563Z,-0.29
2022-12-03T18:06:09.000Z,-0.34
2022-12-03T18:08:35.399Z,-0.35
2022-12-03T18:11:01.887Z,-0.39
2022-12-03T18:13:28.398Z,-0.34
2022-12-03T18:15:54.961Z,-0.37
2022-12-03T18:18:21.548Z,-0.52
2022-12-03T18:20:48.109Z,-0.39
2022-12-03T18:23:14.614Z,-0.39
2022-12-03T18:25:41.754Z,-0.39
2022-12-03T18:28:08.218Z,-0.44
2022-12-03T18:30:34.911Z,-0.54
2022-12-03T18:33:01.407Z,-0.49
2022-12-03T18:35:28.186Z,-0.46
2022-12-03T18:37:54.774Z,-0.46
2022-12-03T18:40:23.968Z,-0.46
2022-12-03T18:42:50.779Z,-0.48
2022-12-03T18:45:19.318Z,-0.51
2022-12-03T18:47:45.869Z,-0.50
2022-12-03T18:50:13.184Z,-0.52
2022-12-03T18:52:40.466Z,-0.55
2022-12-03T18:55:07.773Z,-0.54
2022-12-03T18:57:34.342Z,-0.52
2022-12-03T19:00:00.767Z,-0.56
2022-12-03T19:02:54.165Z,-0.59
2022-12-03T19:05:13.672Z,-0.52
2022-12-03T19:07:40.180Z,-0.57
2022-12-03T19:10:07.436Z,-0.52
2022-12-03T19:12:33.867Z,-0.60
2022-12-03T19:15:00.459Z,-0.58
2022-12-03T19:17:27.512Z,-0.58
2022-12-03T19:19:54.817Z,-0.53
2022-12-03T19:22:21.815Z,-0.58
2022-12-03T19:24:48.349Z,-0.63
2022-12-03T19:27:15.141Z,-0.62
2022-12-03T19:29:41.721Z,-0.63
2022-12-03T19:32:08.949Z,-0.61
2022-12-03T19:34:36.005Z,-0.62
2022-12-03T19:37:02.436Z,-0.63
2022-12-03T19:39:28.820Z,-0.61
2022-12-03T19:41:55.333Z,-0.61
2022-12-03T19:44:21.745Z,-0.61
2022-12-03T19:46:49.460Z,-0.66
2022-12-03T19:49:18.494Z,-0.61
2022-12-03T19:51:44.942Z,-0.60
2022-12-03T19:54:12.011Z,-0.68
2022-12-03T19:56:38.854Z,-0.75
2022-12-03T19:59:05.794Z,-0.72
2022-12-03T20:01:34.290Z,-0.73
2022-12-03T20:04:02.256Z,-0.72
2022-12-03T20:06:33.067Z,-0.74
2022-12-03T20:09:04.274Z,-0.79
2022-12-03T20:11:32.614Z,-0.82
2022-12-03T20:14:07.943Z,-0.81
2022-12-03T20:16:34.943Z,-0.86
2022-12-03T20:19:04.780Z,-0.84
2022-12-03T20:21:34.343Z,-0.78
2022-12-03T20:24:01.390Z,-0.82
2022-12-03T20:26:28.814Z,-0.84
2022-12-03T20:28:55.971Z,-0.79
2022-12-03T20:31:25.213Z,-0.85
2022-12-03T20:33:55.830Z,-0.79
2022-12-03T20:36:22.915Z,-0.80
2022-12-03T20:38:53.963Z,-0.80
2022-12-03T20:41:20.930Z,-0.93
2022-12-03T20:43:47.934Z,-0.82
2022-12-03T20:46:23.193Z,-0.80
2022-12-03T20:48:49.766Z,-0.83
2022-12-03T20:51:19.813Z,-0.81
2022-12-03T20:53:46.592Z,-0.80
2022-12-03T20:56:21.933Z,-0.79
2022-12-03T20:58:49.326Z,-0.82
2022-12-03T21:01:19.078Z,-0.82
2022-12-03T21:03:46.558Z,-0.82
2022-12-03T21:06:13.623Z,-0.86
2022-12-03T21:08:42.561Z,-0.89
2022-12-03T21:11:21.268Z,-0.95
2022-12-03T21:13:47.941Z,-0.93
2022-12-03T21:16:17.233Z,-0.88
2022-12-03T21:18:44.421Z,-0.89
2022-12-03T21:21:13.142Z,-0.89
2022-12-03T21:23:40.156Z,-0.93
2022-12-03T21:26:11.345Z,-0.90
2022-12-03T21:28:39.428Z,-0.93
2022-12-03T21:31:10.293Z,-0.95
2022-12-03T21:33:37.126Z,-0.95
2022-12-03T21:36:05.032Z,-0.98
2022-12-03T21:38:32.680Z,-0.96
2022-12-03T21:41:00.078Z,-1.02
2022-12-03T21:43:27.012Z,-1.03
2022-12-03T21:45:53.645Z,-1.04
2022-12-03T21:48:20.798Z,-1.07
2022-12-03T21:51:00.215Z,-1.06
2022-12-03T21:53:26.944Z,-1.02
2022-12-03T21:55:53.427Z,-1.09
2022-12-03T21:58:19.950Z,-1.09
2022-12-03T22:00:46.874Z,-1.05
2022-12-03T22:03:13.388Z,-1.07
2022-12-03T22:05:40.016Z,-1.07
2022-12-03T22:08:07.424Z,-1.09
2022-12-03T22:10:36.001Z,-1.11
2022-12-03T22:13:02.458Z,-1.10
2022-12-03T22:15:28.905Z,-1.13
2022-12-03T22:17:55.307Z,-1.15
2022-12-03T22:20:21.848Z,-1.15
2022-12-03T22:22:48.335Z,-1.29
2022-12-03T22:25:15.114Z,-1.16
2022-12-03T22:27:41.578Z,-1.21
2022-12-03T22:30:08.454Z,-1.18
2022-12-03T22:32:34.966Z,-1.16
2022-12-03T22:35:01.434Z,-1.15
2022-12-03T22:37:27.874Z,-1.15
2022-12-03T22:39:54.669Z,-1.16
2022-12-03T22:42:21.237Z,-1.11
2022-12-03T22:44:47.715Z,-1.12
2022-12-03T22:47:14.146Z,-1.12
2022-12-03T22:49:40.614Z,-0.99
2022-12-03T22:52:08.188Z,-1.03
2022-12-03T22:54:34.576Z,-1.05
2022-12-03T22:57:01.051Z,-1.05
2022-12-03T22:59:27.624Z,-1.00
2022-12-03T23:01:54.104Z,-1.07
2022-12-03T23:04:20.573Z,-1.08
2022-12-03T23:06:47.039Z,-1.10
2022-12-03T23:09:13.596Z,-1.07
2022-12-03T23:11:40.201Z,-1.05
2022-12-03T23:14:06.629Z,-1.09
2022-12-03T23:16:33.783Z,-1.08
2022-12-03T23:19:01.446Z,-1.06
2022-12-03T23:21:30.852Z,-1.07
2022-12-03T23:23:59.091Z,-1.10
2022-12-03T23:26:25.679Z,-1.06
2022-12-03T23:28:52.220Z,-1.06
2022-12-03T23:31:26.352Z,-1.05
2022-12-03T23:33:53.630Z,-1.08
2022-12-03T23:36:21.546Z,-1.05
2022-12-03T23:38:48.016Z,-1.09
2022-12-03T23:41:17.789Z,-1.05
2022-12-03T23:43:44.523Z,-1.02
2022-12-03T23:46:16.914Z,-1.03
2022-12-03T23:48:43.780Z,-1.02
2022-12-03T23:51:15.982Z,-1.06
2022-12-03T23:53:42.941Z,-1.06
2022-12-03T23:56:12.088Z,-1.09
2022-12-03T23:58:38.746Z,-1.11
